createdAt,value
2022-11-18T00:03:07.448Z,55.90
2022-11-18T00:05:33.929Z,55.90
2022-11-18T00:08:00.372Z,55.90
2022-11-18T00:10:26.850Z,55.90
2022-11-18T00:12:53.308Z,55.90
2022-11-18T00:15:19.892Z,55.90
2022-11-18T00:17:46.417Z,55.90
2022-11-18T00:20:12.911Z,56.00
2022-11-18T00:22:39.391Z,56.00
2022-11-18T00:25:05.885Z,56.00
2022-11-18T00:27:32.361Z,56.00
2022-11-18T00:29:58.840Z,56.00
2022-11-18T00:32:25.477Z,56.00
2022-11-18T00:34:51.954Z,55.90
2022-11-18T00:37:18.405Z,55.80
2022-11-18T00:39:44.866Z,55.70
2022-11-18T00:42:11.338Z,55.80
2022-11-18T00:44:37.797Z,55.70
2022-11-18T00:47:04.285Z,55.70
2022-11-18T00:49:36.586Z,55.70
2022-11-18T00:52:03.031Z,55.80
2022-11-18T00:54:29.536Z,55.80
2022-11-18T00:56:56.005Z,55.80
2022-11-18T00:59:22.475Z,55.90
2022-11-18T01:01:49.164Z,55.90
2022-11-18T01:04:15.763Z,55.80
2022-11-18T01:06:42.249Z,55.90
2022-11-18T01:09:08.702Z,55.90
2022-11-18T01:11:35.195Z,55.80
2022-11-18T01:14:01.659Z,55.90
2022-11-18T01:16:28.118Z,55.90
2022-11-18T01:18:54.574Z,55.90
2022-11-18T01:21:21.073Z,55.90
2022-11-18T01:23:47.556Z,55.90
2022-11-18T01:26:14.025Z,55.80
2022-11-18T01:28:40.501Z,55.70
2022-11-18T01:31:06.981Z,55.80
2022-11-18T01:33:33.441Z,55.70
2022-11-18T01:35:59.924Z,55.70
2022-11-18T01:38:26.395Z,55.70
2022-11-18T01:40:52.910Z,55.50
2022-11-18T01:43:19.388Z,55.70
2022-11-18T01:45:45.858Z,55.80
2022-11-18T01:48:12.322Z,55.80
2022-11-18T01:50:38.782Z,55.80
2022-11-18T01:53:05.353Z,55.90
2022-11-18T01:55:31.851Z,55.90
2022-11-18T01:57:58.324Z,55.90
2022-11-18T02:00:24.790Z,55.90
2022-11-18T02:02:51.259Z,55.90
2022-11-18T02:05:17.720Z,56.00
2022-11-18T02:07:44.252Z,56.00
2022-11-18T02:10:10.754Z,55.90
2022-11-18T02:12:37.218Z,56.00
2022-11-18T02:15:03.695Z,56.00
2022-11-18T02:17:30.160Z,56.00
2022-11-18T02:19:56.628Z,56.00
2022-11-18T02:22:23.094Z,56.00
2022-11-18T02:24:49.583Z,56.00
2022-11-18T02:27:16.080Z,56.00
2022-11-18T02:29:42.534Z,56.00
2022-11-18T02:32:09.002Z,56.00
2022-11-18T02:34:35.452Z,56.00
2022-11-18T02:37:01.931Z,56.10
2022-11-18T02:39:28.415Z,56.10
2022-11-18T02:41:54.899Z,56.00
2022-11-18T02:44:21.365Z,56.00
2022-11-18T02:46:47.830Z,56.00
2022-11-18T02:49:14.462Z,56.00
2022-11-18T02:51:41.063Z,55.90
2022-11-18T02:54:07.506Z,55.90
2022-11-18T02:56:33.975Z,55.90
2022-11-18T02:59:00.439Z,55.80
2022-11-18T03:01:26.963Z,55.90
2022-11-18T03:03:53.473Z,55.90
2022-11-18T03:06:19.937Z,55.90
2022-11-18T03:08:46.435Z,55.80
2022-11-18T03:11:13.010Z,55.90
2022-11-18T03:13:39.475Z,55.90
2022-11-18T03:16:05.939Z,55.80
2022-11-18T03:18:32.396Z,55.90
2022-11-18T03:20:58.857Z,55.90
2022-11-18T03:23:25.330Z,55.90
2022-11-18T03:25:51.778Z,55.90
2022-11-18T03:28:18.245Z,55.90
2022-11-18T03:30:44.734Z,55.90
2022-11-18T03:33:14.004Z,55.80
2022-11-18T03:35:40.459Z,55.80
2022-11-18T03:38:06.999Z,55.90
2022-11-18T03:40:33.456Z,55.80
2022-11-18T03:42:59.941Z,56.00
2022-11-18T03:45:26.493Z,56.00
2022-11-18T03:47:52.955Z,56.10
2022-11-18T03:50:19.412Z,56.10
2022-11-18T03:52:45.888Z,56.20
2022-11-18T03:55:12.360Z,56.10
2022-11-18T03:57:38.837Z,56.10
2022-11-18T04:00:05.321Z,56.20
2022-11-18T04:02:31.776Z,56.20
2022-11-18T04:04:58.217Z,56.30
2022-11-18T04:07:24.673Z,56.20
2022-11-18T04:09:51.166Z,56.20
2022-11-18T04:12:17.628Z,56.30
2022-11-18T04:14:44.114Z,56.30
2022-11-18T04:17:10.581Z,56.20
2022-11-18T04:19:37.066Z,56.30
2022-11-18T04:22:03.524Z,56.20
2022-11-18T04:24:30.008Z,56.20
2022-11-18T04:26:56.522Z,56.20
2022-11-18T04:29:23.045Z,56.10
2022-11-18T04:31:49.517Z,56.20
2022-11-18T04:34:15.985Z,56.10
2022-11-18T04:36:42.456Z,56.10
2022-11-18T04:39:08.925Z,56.00
2022-11-18T04:41:35.389Z,56.00
2022-11-18T04:44:01.820Z,56.00
2022-11-18T04:46:28.287Z,56.00
2022-11-18T04:48:54.740Z,55.80
2022-11-18T04:51:21.206Z,56.00
2022-11-18T04:53:47.675Z,55.90
2022-11-18T04:56:14.163Z,55.90
2022-11-18T04:58:40.614Z,55.90
2022-11-18T05:01:07.221Z,55.90
2022-11-18T05:03:33.729Z,55.90
2022-11-18T05:06:00.218Z,55.90
2022-11-18T05:08:26.687Z,56.00
2022-11-18T05:10:53.156Z,56.00
2022-11-18T05:13:19.602Z,56.00
2022-11-18T05:15:46.081Z,56.00
2022-11-18T05:18:12.538Z,56.00
2022-11-18T05:20:41.695Z,56.00
2022-11-18T05:23:08.483Z,56.00
2022-11-18T05:25:34.969Z,56.00
2022-11-18T05:28:01.423Z,55.90
2022-11-18T05:30:28.077Z,56.00
2022-11-18T05:32:54.551Z,55.90
2022-11-18T05:35:21.005Z,56.00
2022-11-18T05:37:47.603Z,56.00
2022-11-18T05:40:14.075Z,56.00
2022-11-18T05:42:40.527Z,56.00
2022-11-18T05:45:07.015Z,55.90
2022-11-18T05:47:33.497Z,56.10
2022-11-18T05:49:59.974Z,56.00
2022-11-18T05:52:26.471Z,56.00
2022-11-18T05:54:52.941Z,56.00
2022-11-18T05:57:19.570Z,56.00
2022-11-18T05:59:46.047Z,56.00
2022-11-18T06:02:12.497Z,55.90
2022-11-18T06:04:38.953Z,55.80
2022-11-18T06:07:05.462Z,55.90
2022-11-18T06:09:31.984Z,56.00
2022-11-18T06:11:58.435Z,56.00
2022-11-18T06:14:24.884Z,56.00
2022-11-18T06:16:51.327Z,56.00
2022-11-18T06:19:17.889Z,56.10
2022-11-18T06:21:44.511Z,56.10
2022-11-18T06:24:10.986Z,56.10
2022-11-18T06:26:37.462Z,56.10
2022-11-18T06:29:03.935Z,56.00
2022-11-18T06:31:30.386Z,56.10
2022-11-18T06:33:56.863Z,56.10
2022-11-18T06:36:23.369Z,56.20
2022-11-18T06:38:49.832Z,56.10
2022-11-18T06:41:16.340Z,56.10
2022-11-18T06:43:42.816Z,56.10
2022-11-18T06:46:09.644Z,56.10
2022-11-18T06:48:36.143Z,56.10
2022-11-18T06:51:02.638Z,56.10
2022-11-18T06:53:29.216Z,56.10
2022-11-18T06:55:55.717Z,56.10
2022-11-18T06:58:22.164Z,56.10
2022-11-18T07:00:48.713Z,56.10
2022-11-18T07:03:15.191Z,56.10
2022-11-18T07:05:41.668Z,56.20
2022-11-18T07:08:08.168Z,56.20
2022-11-18T07:10:34.699Z,56.20
2022-11-18T07:13:01.136Z,56.30
2022-11-18T07:15:27.645Z,56.20
2022-11-18T07:17:54.102Z,56.10
2022-11-18T07:20:20.549Z,56.20
2022-11-18T07:22:47.030Z,56.10
2022-11-18T07:25:13.480Z,56.20
2022-11-18T07:27:39.946Z,56.20
2022-11-18T07:30:06.401Z,56.20
2022-11-18T07:32:32.863Z,56.20
2022-11-18T07:34:59.330Z,56.20
2022-11-18T07:37:25.780Z,56.20
2022-11-18T07:39:52.225Z,56.20
2022-11-18T07:42:18.688Z,56.20
2022-11-18T07:44:45.173Z,56.30
2022-11-18T07:47:11.673Z,56.30
2022-11-18T07:49:38.146Z,56.30
2022-11-18T07:52:04.811Z,56.30
2022-11-18T07:54:31.273Z,56.30
2022-11-18T07:56:57.778Z,56.20
2022-11-18T07:59:24.359Z,56.20
2022-11-18T08:01:50.955Z,56.30
2022-11-18T08:04:17.493Z,56.30
2022-11-18T08:06:43.985Z,56.30
2022-11-18T08:09:10.439Z,56.30
2022-11-18T08:11:36.903Z,56.20
2022-11-18T08:14:03.339Z,56.30
2022-11-18T08:16:29.871Z,56.20
2022-11-18T08:18:56.322Z,56.30
2022-11-18T08:21:23.913Z,56.20
2022-11-18T08:23:50.394Z,56.30
2022-11-18T08:26:16.845Z,56.30
2022-11-18T08:28:44.720Z,56.40
2022-11-18T08:31:11.279Z,56.30
2022-11-18T08:33:37.733Z,56.30
2022-11-18T08:36:04.277Z,56.40
2022-11-18T08:38:30.764Z,56.30
2022-11-18T08:40:57.280Z,56.30
2022-11-18T08:43:23.755Z,56.30
2022-11-18T08:45:50.851Z,56.20
2022-11-18T08:48:17.318Z,56.20
2022-11-18T08:50:43.791Z,56.30
2022-11-18T08:53:10.276Z,56.30
2022-11-18T08:55:36.724Z,56.30
2022-11-18T08:58:03.202Z,56.30
2022-11-18T09:00:29.689Z,56.40
2022-11-18T09:02:56.176Z,56.30
2022-11-18T09:05:22.733Z,56.30
2022-11-18T09:07:51.588Z,56.40
2022-11-18T09:10:18.062Z,56.30
2022-11-18T09:12:44.536Z,56.30
2022-11-18T09:17:57.487Z,56.30
2022-11-18T09:20:23.956Z,56.30
2022-11-18T09:22:50.441Z,56.30
2022-11-18T09:25:16.917Z,56.30
2022-11-18T09:27:43.397Z,56.40
2022-11-18T09:30:09.840Z,56.30
2022-11-18T09:32:36.303Z,56.40
2022-11-18T09:35:05.152Z,56.40
2022-11-18T09:37:31.600Z,56.40
2022-11-18T09:39:58.065Z,56.40
2022-11-18T09:42:24.558Z,56.50
2022-11-18T09:44:51.277Z,56.50
2022-11-18T09:47:17.744Z,56.40
2022-11-18T09:49:44.220Z,56.40
2022-11-18T09:52:10.818Z,56.50
2022-11-18T09:54:37.273Z,56.50
2022-11-18T09:57:03.758Z,56.50
2022-11-18T09:59:30.222Z,56.60
2022-11-18T10:01:56.765Z,56.60
2022-11-18T10:04:23.289Z,56.50
2022-11-18T10:09:30.079Z,56.40
2022-11-18T10:11:56.548Z,56.40
2022-11-18T10:14:23.023Z,56.40
2022-11-18T10:16:50.907Z,56.50
2022-11-18T10:19:20.327Z,56.40
2022-11-18T10:21:46.796Z,56.50
2022-11-18T10:24:13.812Z,56.50
2022-11-18T10:26:40.262Z,56.50
2022-11-18T10:29:06.781Z,56.50
2022-11-18T10:31:33.240Z,56.50
2022-11-18T10:33:59.750Z,56.50
2022-11-18T10:36:26.212Z,56.50
2022-11-18T10:38:52.664Z,56.60
2022-11-18T10:41:19.155Z,56.60
2022-11-18T10:43:45.631Z,56.60
2022-11-18T10:46:12.082Z,56.60
2022-11-18T10:48:38.578Z,56.50
2022-11-18T10:51:05.053Z,56.60
2022-11-18T10:53:31.556Z,56.60
2022-11-18T10:55:58.022Z,56.60
2022-11-18T10:58:24.527Z,56.50
2022-11-18T11:00:51.263Z,56.60
2022-11-18T11:03:17.709Z,56.60
2022-11-18T11:05:44.195Z,56.70
2022-11-18T11:08:35.138Z,56.70
2022-11-18T11:10:57.093Z,56.70
2022-11-18T11:13:26.471Z,56.70
2022-11-18T11:15:52.963Z,56.60
2022-11-18T11:18:19.415Z,56.60
2022-11-18T11:20:45.925Z,56.60
2022-11-18T11:23:12.382Z,56.60
2022-11-18T11:28:25.339Z,56.50
2022-11-18T11:30:51.819Z,56.50
2022-11-18T11:33:18.303Z,56.40
2022-11-18T11:35:44.759Z,56.60
2022-11-18T11:38:11.295Z,56.60
2022-11-18T11:40:37.830Z,56.60
2022-11-18T11:43:04.319Z,56.70
2022-11-18T11:45:33.150Z,56.70
2022-11-18T11:47:59.697Z,56.80
2022-11-18T11:50:26.213Z,56.70
2022-11-18T11:52:52.683Z,56.70
2022-11-18T11:55:19.183Z,56.50
2022-11-18T11:57:45.665Z,56.70
2022-11-18T12:00:12.172Z,56.70
2022-11-18T12:02:38.677Z,56.70
2022-11-18T12:05:05.212Z,56.70
2022-11-18T12:07:31.803Z,56.80
2022-11-18T12:09:58.427Z,56.80
2022-11-18T12:12:24.885Z,56.70
2022-11-18T12:14:51.347Z,56.70
2022-11-18T12:17:17.826Z,56.80
2022-11-18T12:19:44.295Z,56.80
2022-11-18T12:22:10.764Z,56.80
2022-11-18T12:24:37.255Z,56.90
2022-11-18T12:27:03.719Z,56.80
2022-11-18T12:29:30.292Z,56.90
2022-11-18T12:31:56.830Z,56.80
2022-11-18T12:34:23.291Z,56.70
2022-11-18T12:36:49.770Z,56.70
2022-11-18T12:39:16.385Z,56.80
2022-11-18T12:41:43.048Z,56.70
2022-11-18T12:44:09.533Z,56.60
2022-11-18T12:46:36.177Z,56.70
2022-11-18T12:49:06.559Z,56.70
2022-11-18T12:51:33.003Z,56.80
2022-11-18T12:53:59.461Z,56.80
2022-11-18T12:56:25.935Z,56.80
2022-11-18T12:58:52.407Z,56.70
2022-11-18T13:01:18.937Z,56.70
2022-11-18T13:03:45.433Z,56.70
2022-11-18T13:06:11.896Z,56.60
2022-11-18T13:08:38.452Z,56.70
2022-11-18T13:11:04.930Z,56.70
2022-11-18T13:13:31.433Z,56.60
2022-11-18T13:15:57.914Z,56.60
2022-11-18T13:18:24.372Z,56.60
2022-11-18T13:20:50.871Z,56.60
2022-11-18T13:23:17.355Z,56.60
2022-11-18T13:25:43.845Z,56.60
2022-11-18T13:28:10.311Z,56.50
2022-11-18T13:30:36.792Z,56.70
2022-11-18T13:33:03.280Z,56.70
2022-11-18T13:35:29.735Z,56.70
2022-11-18T13:37:56.198Z,56.80
2022-11-18T13:40:22.658Z,56.70
2022-11-18T13:42:49.114Z,56.70
2022-11-18T13:45:15.569Z,56.60
2022-11-18T13:47:42.039Z,56.60
2022-11-18T13:50:08.502Z,56.60
2022-11-18T13:52:34.985Z,56.60
2022-11-18T13:55:01.444Z,56.60
2022-11-18T13:57:27.916Z,56.60
2022-11-18T13:59:54.433Z,56.50
2022-11-18T14:02:20.887Z,56.50
2022-11-18T14:04:47.370Z,56.60
2022-11-18T14:07:13.894Z,56.40
2022-11-18T14:09:40.402Z,56.50
2022-11-18T14:12:06.871Z,56.60
2022-11-18T14:14:33.328Z,56.60
2022-11-18T14:16:59.799Z,56.60
2022-11-18T14:19:26.288Z,56.70
2022-11-18T14:21:52.815Z,56.70
2022-11-18T14:24:19.717Z,56.70
2022-11-18T14:26:46.343Z,56.70
2022-11-18T14:29:12.792Z,56.70
2022-11-18T14:31:39.250Z,56.50
2022-11-18T14:34:05.703Z,56.60
2022-11-18T14:36:32.169Z,56.60
2022-11-18T14:39:19.766Z,56.70
2022-11-18T14:41:45.493Z,56.70
2022-11-18T14:44:12.074Z,56.80
2022-11-18T14:46:38.753Z,56.80
2022-11-18T14:49:05.181Z,56.80
2022-11-18T14:51:31.720Z,56.70
2022-11-18T14:53:58.169Z,56.70
2022-11-18T14:56:24.650Z,56.70
2022-11-18T14:58:51.275Z,56.70
2022-11-18T15:01:17.798Z,56.70
2022-11-18T15:03:44.359Z,56.70
2022-11-18T15:06:10.840Z,56.70
2022-11-18T15:08:37.324Z,56.70
2022-11-18T15:11:03.771Z,56.70
2022-11-18T15:13:30.242Z,56.70
2022-11-18T15:15:56.733Z,56.70
2022-11-18T15:18:23.274Z,56.70
2022-11-18T15:20:49.729Z,56.70
2022-11-18T15:23:16.201Z,56.60
2022-11-18T15:25:42.666Z,56.70
2022-11-18T15:28:09.134Z,56.80
2022-11-18T15:30:35.605Z,56.70
2022-11-18T15:33:02.071Z,56.70
2022-11-18T15:35:28.535Z,56.70
2022-11-18T15:37:55.027Z,56.60
2022-11-18T15:40:21.488Z,56.60
2022-11-18T15:42:52.070Z,56.60
2022-11-18T15:45:18.947Z,56.70
2022-11-18T15:47:45.450Z,56.70
2022-11-18T15:50:11.920Z,56.70
2022-11-18T15:55:18.728Z,56.70
2022-11-18T15:57:45.209Z,56.70
2022-11-18T16:00:11.709Z,56.70
2022-11-18T16:02:38.194Z,56.70
2022-11-18T16:05:04.673Z,56.70
2022-11-18T16:07:31.139Z,56.60
2022-11-18T16:09:57.662Z,56.60
2022-11-18T16:12:24.150Z,56.60
2022-11-18T16:14:50.605Z,56.60
2022-11-18T16:17:17.075Z,56.60
2022-11-18T16:19:43.559Z,56.60
2022-11-18T16:22:10.033Z,56.40
2022-11-18T16:24:36.508Z,56.60
2022-11-18T16:27:04.754Z,56.60
2022-11-18T16:29:31.363Z,56.60
2022-11-18T16:31:57.835Z,56.50
2022-11-18T16:34:24.339Z,56.50
2022-11-18T16:36:50.832Z,56.50
2022-11-18T16:39:17.574Z,56.50
2022-11-18T16:41:44.203Z,56.50
2022-11-18T16:44:10.691Z,56.50
2022-11-18T16:46:37.135Z,56.60
2022-11-18T16:49:03.615Z,56.50
2022-11-18T16:51:30.061Z,56.50
2022-11-18T16:53:56.524Z,56.50
2022-11-18T16:56:23.028Z,56.40
2022-11-18T16:58:55.432Z,56.30
2022-11-18T17:01:27.810Z,56.40
2022-11-18T17:03:55.715Z,56.40
2022-11-18T17:06:22.199Z,56.30
2022-11-18T17:08:48.691Z,56.30
2022-11-18T17:11:15.183Z,56.30
2022-11-18T17:13:41.644Z,56.30
2022-11-18T17:16:08.181Z,56.30
2022-11-18T17:18:34.643Z,56.30
2022-11-18T17:21:01.122Z,56.20
2022-11-18T17:23:27.591Z,56.20
2022-11-18T17:25:54.060Z,56.20
2022-11-18T17:28:20.519Z,56.20
2022-11-18T17:30:50.049Z,56.10
2022-11-18T17:33:16.737Z,56.20
2022-11-18T17:35:43.212Z,56.20
2022-11-18T17:38:09.659Z,56.20
2022-11-18T17:40:36.107Z,56.20
2022-11-18T17:43:02.733Z,56.30
2022-11-18T17:45:29.223Z,56.20
2022-11-18T17:47:58.460Z,56.20
2022-11-18T17:50:24.926Z,56.20
2022-11-18T17:52:51.387Z,56.30
2022-11-18T17:55:17.880Z,56.30
2022-11-18T17:57:44.355Z,56.30
2022-11-18T18:00:10.856Z,56.30
2022-11-18T18:02:37.318Z,56.30
2022-11-18T18:05:03.785Z,56.20
2022-11-18T18:07:30.395Z,56.30
2022-11-18T18:09:56.997Z,56.30
2022-11-18T18:12:23.518Z,56.20
2022-11-18T18:14:50.007Z,56.20
2022-11-18T18:17:16.491Z,56.20
2022-11-18T18:19:42.970Z,56.20
2022-11-18T18:22:09.436Z,56.30
2022-11-18T18:24:35.911Z,56.20
2022-11-18T18:27:02.368Z,56.20
2022-11-18T18:29:28.831Z,56.20
2022-11-18T18:31:55.277Z,56.20
2022-11-18T18:34:22.128Z,56.10
2022-11-18T18:36:48.749Z,56.10
2022-11-18T18:39:15.204Z,55.90
2022-11-18T18:41:41.697Z,56.00
2022-11-18T18:44:08.447Z,56.10
2022-11-18T18:46:35.495Z,56.20
2022-11-18T18:49:01.938Z,56.10
2022-11-18T18:51:28.406Z,56.20
2022-11-18T18:53:55.396Z,56.20
2022-11-18T18:56:21.846Z,56.20
2022-11-18T18:58:48.301Z,56.20
2022-11-18T19:01:14.872Z,56.10
2022-11-18T19:03:41.366Z,56.00
2022-11-18T19:08:54.273Z,56.00
2022-11-18T19:11:20.764Z,56.10
2022-11-18T19:13:47.266Z,56.10
2022-11-18T19:16:13.825Z,56.10
2022-11-18T19:18:40.281Z,56.00
2022-11-18T19:21:06.787Z,55.90
2022-11-18T19:23:33.224Z,55.80
2022-11-18T19:25:59.717Z,56.10
2022-11-18T19:28:26.187Z,56.00
2022-11-18T19:30:52.818Z,55.90
2022-11-18T19:33:19.314Z,56.10
2022-11-18T19:35:45.886Z,56.00
2022-11-18T19:38:12.358Z,56.10
2022-11-18T19:40:38.824Z,56.10
2022-11-18T19:43:05.266Z,55.90
2022-11-18T19:45:31.720Z,55.80
2022-11-18T19:47:58.255Z,55.90
2022-11-18T19:50:24.719Z,55.80
2022-11-18T19:52:51.172Z,55.80
2022-11-18T19:55:17.656Z,55.70
2022-11-18T19:57:44.138Z,55.70
2022-11-18T20:00:10.604Z,55.70
2022-11-18T20:02:37.058Z,55.70
2022-11-18T20:05:03.546Z,55.60
2022-11-18T20:07:30.080Z,55.50
2022-11-18T20:09:56.619Z,55.40
2022-11-18T20:12:23.085Z,55.40
2022-11-18T20:14:49.556Z,55.40
2022-11-18T20:17:16.019Z,55.70
2022-11-18T20:19:42.482Z,55.60
2022-11-18T20:22:08.963Z,55.60
2022-11-18T20:24:35.451Z,55.50
2022-11-18T20:27:01.929Z,55.30
2022-11-18T20:29:28.394Z,55.20
2022-11-18T20:31:57.276Z,55.30
2022-11-18T20:34:23.820Z,55.50
2022-11-18T20:36:50.301Z,55.50
2022-11-18T20:39:16.929Z,55.30
2022-11-18T20:41:43.757Z,55.20
2022-11-18T20:44:10.230Z,55.20
2022-11-18T20:46:36.725Z,55.10
2022-11-18T20:49:03.563Z,55.10
2022-11-18T20:51:30.130Z,54.80
2022-11-18T20:53:56.624Z,55.10
2022-11-18T20:56:23.102Z,54.90
2022-11-18T20:58:49.597Z,54.80
2022-11-18T21:01:16.096Z,54.70
2022-11-18T21:03:42.586Z,54.50
2022-11-18T21:06:13.628Z,54.70
2022-11-18T21:08:40.816Z,54.70
2022-11-18T21:11:07.279Z,54.90
2022-11-18T21:13:33.769Z,54.60
2022-11-18T21:16:00.303Z,54.60
2022-11-18T21:18:26.740Z,54.50
2022-11-18T21:20:53.257Z,54.40
2022-11-18T21:23:19.744Z,54.40
2022-11-18T21:25:46.185Z,54.50
2022-11-18T21:28:12.669Z,54.00
2022-11-18T21:30:39.161Z,54.30
2022-11-18T21:33:05.628Z,54.20
2022-11-18T21:35:32.139Z,54.30
2022-11-18T21:37:58.592Z,54.00
2022-11-18T21:40:25.090Z,54.10
2022-11-18T21:42:51.550Z,54.10
2022-11-18T21:45:18.010Z,54.20
2022-11-18T21:47:44.477Z,54.00
2022-11-18T21:50:10.936Z,54.10
2022-11-18T21:52:37.413Z,53.90
2022-11-18T21:55:06.507Z,53.80
2022-11-18T21:57:32.930Z,53.60
2022-11-18T21:59:59.406Z,53.60
2022-11-18T22:02:25.858Z,53.60
2022-11-18T22:04:52.329Z,53.60
2022-11-18T22:07:18.851Z,53.50
2022-11-18T22:09:45.336Z,53.50
2022-11-18T22:12:11.813Z,53.30
2022-11-18T22:14:38.491Z,53.20
2022-11-18T22:17:04.967Z,53.40
2022-11-18T22:19:31.439Z,53.30
2022-11-18T22:21:57.880Z,53.10
2022-11-18T22:24:24.359Z,53.20
2022-11-18T22:26:50.805Z,53.20
2022-11-18T22:29:17.603Z,52.90
2022-11-18T22:31:44.294Z,52.90
2022-11-18T22:34:10.773Z,52.80
2022-11-18T22:36:37.237Z,52.90
2022-11-18T22:39:03.692Z,52.90
2022-11-18T22:41:30.120Z,52.60
2022-11-18T22:43:56.591Z,52.70
2022-11-18T22:46:23.114Z,52.50
2022-11-18T22:48:49.546Z,52.80
2022-11-18T22:51:18.969Z,52.70
2022-11-18T22:53:45.432Z,52.80
2022-11-18T22:56:11.887Z,52.70
2022-11-18T22:58:38.367Z,52.60
2022-11-18T23:01:04.823Z,52.60
2022-11-18T23:03:31.292Z,52.40
2022-11-18T23:05:57.781Z,52.30
2022-11-18T23:08:24.335Z,52.20
2022-11-18T23:10:50.828Z,52.10
2022-11-18T23:13:17.280Z,52.20
2022-11-18T23:15:43.750Z,52.10
2022-11-18T23:18:11.757Z,52.20
2022-11-18T23:20:38.624Z,51.90
2022-11-18T23:23:05.101Z,52.00
2022-11-18T23:25:31.582Z,51.90
2022-11-18T23:27:58.054Z,51.90
2022-11-18T23:30:24.511Z,51.70
2022-11-18T23:32:58.185Z,51.60
2022-11-18T23:35:24.738Z,51.70
2022-11-18T23:37:51.197Z,51.80
2022-11-18T23:40:17.665Z,51.70
2022-11-18T23:42:44.144Z,51.70
2022-11-18T23:45:10.623Z,51.50
2022-11-18T23:47:37.080Z,51.30
2022-11-18T23:50:03.562Z,51.30
2022-11-18T23:52:30.027Z,51.30
2022-11-18T23:54:56.490Z,51.30
2022-11-18T23:57:22.958Z,51.30
2022-11-18T23:59:49.439Z,51.10
